createdAt,value
2022-10-08T00:01:10.780Z,100.00
2022-10-08T00:03:40.554Z,100.00
2022-10-08T00:06:15.753Z,100.00
2022-10-08T00:08:48.011Z,100.00
2022-10-08T00:11:16.948Z,100.00
2022-10-08T00:13:46.900Z,100.00
2022-10-08T00:16:34.555Z,100.00
2022-10-08T00:19:03.990Z,100.00
2022-10-08T00:21:36.193Z,100.00
2022-10-08T00:24:05.177Z,100.00
2022-10-08T00:26:33.531Z,100.00
2022-10-08T00:29:03.232Z,100.00
2022-10-08T00:31:32.498Z,100.00
2022-10-08T00:34:00.666Z,100.00
2022-10-08T00:36:31.522Z,100.00
2022-10-08T00:39:06.738Z,100.00
2022-10-08T00:41:37.503Z,100.00
2022-10-08T00:44:42.454Z,100.00
2022-10-08T00:47:16.578Z,100.00
2022-10-08T00:49:43.939Z,100.00
2022-10-08T00:52:10.699Z,100.00
2022-10-08T00:54:37.445Z,100.00
2022-10-08T00:57:06.510Z,100.00
2022-10-08T00:59:33.318Z,100.00
2022-10-08T01:02:00.684Z,100.00
2022-10-08T01:04:27.394Z,100.00
2022-10-08T01:07:02.283Z,100.00
2022-10-08T01:09:56.006Z,100.00
2022-10-08T01:12:35.633Z,100.00
2022-10-08T01:15:09.944Z,100.00
2022-10-08T01:17:55.508Z,100.00
2022-10-08T01:20:39.072Z,100.00
2022-10-08T01:23:20.895Z,100.00
2022-10-08T01:26:08.638Z,100.00
2022-10-08T01:28:58.268Z,100.00
2022-10-08T01:31:29.219Z,100.00
2022-10-08T01:34:37.573Z,100.00
2022-10-08T01:37:07.090Z,100.00
2022-10-08T01:39:36.243Z,100.00
2022-10-08T01:42:06.869Z,100.00
2022-10-08T01:44:39.259Z,100.00
2022-10-08T01:47:11.163Z,100.00
2022-10-08T01:49:45.968Z,100.00
2022-10-08T01:52:18.086Z,100.00
2022-10-08T01:54:48.325Z,100.00
2022-10-08T01:57:14.976Z,100.00
2022-10-08T01:59:46.803Z,100.00
2022-10-08T02:02:16.333Z,100.00
2022-10-08T02:04:43.240Z,100.00
2022-10-08T02:07:18.973Z,100.00
2022-10-08T02:09:48.387Z,100.00
2022-10-08T02:12:14.976Z,100.00
2022-10-08T02:14:45.022Z,100.00
2022-10-08T02:17:25.434Z,100.00
2022-10-08T02:20:13.557Z,100.00
2022-10-08T02:23:08.525Z,100.00
2022-10-08T02:25:45.324Z,100.00
2022-10-08T02:28:19.425Z,100.00
2022-10-08T02:30:53.034Z,100.00
2022-10-08T02:33:26.436Z,100.00
2022-10-08T02:35:56.705Z,100.00
2022-10-08T02:38:28.778Z,100.00
2022-10-08T02:40:58.499Z,100.00
2022-10-08T02:43:29.395Z,100.00
2022-10-08T02:46:10.730Z,100.00
2022-10-08T02:48:42.297Z,100.00
2022-10-08T02:51:13.408Z,100.00
2022-10-08T02:53:40.373Z,100.00
2022-10-08T02:56:15.128Z,100.00
2022-10-08T02:58:43.177Z,100.00
2022-10-08T03:01:15.313Z,100.00
2022-10-08T03:03:50.400Z,100.00
2022-10-08T03:06:18.326Z,100.00
2022-10-08T03:08:49.106Z,100.00
2022-10-08T03:11:16.358Z,100.00
2022-10-08T03:13:46.079Z,100.00
2022-10-08T03:16:14.736Z,100.00
2022-10-08T03:18:41.518Z,100.00
2022-10-08T03:21:09.295Z,100.00
2022-10-08T03:23:35.954Z,100.00
2022-10-08T03:26:02.578Z,100.00
2022-10-08T03:28:29.428Z,100.00
2022-10-08T03:30:56.260Z,100.00
2022-10-08T03:33:23.115Z,100.00
2022-10-08T03:35:49.785Z,100.00
2022-10-08T03:38:16.552Z,100.00
2022-10-08T03:40:44.219Z,100.00
2022-10-08T03:43:10.828Z,100.00
2022-10-08T03:45:37.462Z,100.00
2022-10-08T03:48:04.137Z,100.00
2022-10-08T03:50:30.745Z,100.00
2022-10-08T03:52:57.327Z,100.00
2022-10-08T03:55:23.970Z,100.00
2022-10-08T03:57:50.608Z,100.00
2022-10-08T04:00:17.838Z,100.00
2022-10-08T04:02:49.474Z,100.00
2022-10-08T04:05:16.406Z,100.00
2022-10-08T04:07:42.985Z,100.00
2022-10-08T04:10:09.757Z,100.00
2022-10-08T04:12:36.344Z,100.00
2022-10-08T04:15:03.144Z,100.00
2022-10-08T04:17:29.822Z,100.00
2022-10-08T04:19:57.268Z,100.00
2022-10-08T04:22:23.885Z,100.00
2022-10-08T04:24:50.490Z,100.00
2022-10-08T04:27:17.089Z,100.00
2022-10-08T04:29:43.697Z,100.00
2022-10-08T04:32:10.575Z,100.00
2022-10-08T04:34:37.251Z,100.00
2022-10-08T04:37:03.915Z,100.00
2022-10-08T04:39:30.522Z,100.00
2022-10-08T04:41:57.164Z,100.00
2022-10-08T04:44:23.759Z,100.00
2022-10-08T04:46:53.361Z,100.00
2022-10-08T04:49:19.953Z,100.00
2022-10-08T04:51:46.554Z,100.00
2022-10-08T04:54:13.138Z,100.00
2022-10-08T04:56:39.743Z,100.00
2022-10-08T04:59:06.314Z,100.00
2022-10-08T05:01:32.959Z,100.00
2022-10-08T05:03:59.995Z,100.00
2022-10-08T05:06:29.400Z,100.00
2022-10-08T05:08:57.161Z,100.00
2022-10-08T05:11:25.145Z,100.00
2022-10-08T05:13:53.508Z,100.00
2022-10-08T05:16:21.134Z,100.00
2022-10-08T05:18:48.101Z,100.00
2022-10-08T05:21:17.014Z,100.00
2022-10-08T05:23:43.976Z,100.00
2022-10-08T05:26:35.949Z,100.00
2022-10-08T05:29:10.684Z,100.00
2022-10-08T05:31:38.045Z,100.00
2022-10-08T05:34:05.154Z,100.00
2022-10-08T05:36:33.658Z,100.00
2022-10-08T05:39:01.216Z,100.00
2022-10-08T05:41:29.830Z,100.00
2022-10-08T05:43:57.815Z,100.00
2022-10-08T05:46:26.458Z,100.00
2022-10-08T05:48:54.287Z,100.00
2022-10-08T05:51:20.979Z,100.00
2022-10-08T05:53:50.458Z,100.00
2022-10-08T05:56:19.202Z,100.00
2022-10-08T05:58:46.604Z,100.00
2022-10-08T06:01:15.088Z,100.00
2022-10-08T06:03:41.874Z,100.00
2022-10-08T06:06:10.572Z,100.00
2022-10-08T06:08:37.486Z,100.00
2022-10-08T06:11:05.969Z,100.00
2022-10-08T06:13:32.997Z,100.00
2022-10-08T06:16:00.513Z,100.00
2022-10-08T06:18:29.950Z,100.00
2022-10-08T06:20:56.664Z,100.00
2022-10-08T06:23:24.434Z,100.00
2022-10-08T06:25:51.035Z,100.00
2022-10-08T06:28:17.651Z,100.00
2022-10-08T06:30:44.279Z,100.00
2022-10-08T06:33:11.436Z,100.00
2022-10-08T06:35:38.316Z,100.00
2022-10-08T06:38:05.459Z,100.00
2022-10-08T06:40:33.694Z,100.00
2022-10-08T06:43:00.305Z,100.00
2022-10-08T06:45:26.913Z,100.00
2022-10-08T06:47:53.496Z,100.00
2022-10-08T06:50:20.077Z,100.00
2022-10-08T06:52:46.904Z,100.00
2022-10-08T06:55:13.755Z,100.00
2022-10-08T06:57:40.441Z,100.00
2022-10-08T07:00:08.781Z,100.00
2022-10-08T07:02:35.595Z,100.00
2022-10-08T07:05:02.475Z,100.00
2022-10-08T07:07:29.128Z,100.00
2022-10-08T07:09:55.781Z,100.00
2022-10-08T07:12:22.390Z,100.00
2022-10-08T07:14:49.109Z,100.00
2022-10-08T07:17:16.842Z,100.00
2022-10-08T07:19:43.413Z,100.00
2022-10-08T07:22:09.991Z,100.00
2022-10-08T07:24:36.579Z,100.00
2022-10-08T07:27:03.211Z,100.00
2022-10-08T07:29:29.850Z,100.00
2022-10-08T07:31:56.573Z,100.00
2022-10-08T07:34:23.341Z,100.00
2022-10-08T07:36:49.954Z,100.00
2022-10-08T07:39:20.677Z,100.00
2022-10-08T07:41:48.542Z,100.00
2022-10-08T07:44:15.984Z,100.00
2022-10-08T07:46:48.037Z,100.00
2022-10-08T07:49:15.560Z,100.00
2022-10-08T07:51:42.272Z,100.00
2022-10-08T07:54:10.639Z,100.00
2022-10-08T07:56:37.708Z,100.00
2022-10-08T07:59:04.845Z,100.00
2022-10-08T08:01:32.913Z,100.00
2022-10-08T08:04:02.253Z,100.00
2022-10-08T08:06:30.029Z,100.00
2022-10-08T08:08:57.206Z,100.00
2022-10-08T08:11:24.920Z,100.00
2022-10-08T08:13:52.218Z,100.00
2022-10-08T08:16:25.543Z,100.00
2022-10-08T08:18:55.502Z,100.00
2022-10-08T08:21:24.757Z,100.00
2022-10-08T08:23:53.783Z,100.00
2022-10-08T08:26:26.472Z,100.00
2022-10-08T08:28:54.606Z,100.00
2022-10-08T08:31:27.497Z,100.00
2022-10-08T08:33:56.376Z,100.00
2022-10-08T08:36:28.133Z,100.00
2022-10-08T08:38:54.898Z,100.00
2022-10-08T08:41:40.220Z,100.00
2022-10-08T08:44:12.805Z,100.00
2022-10-08T08:46:42.187Z,100.00
2022-10-08T08:49:17.318Z,100.00
2022-10-08T08:51:47.165Z,100.00
2022-10-08T08:54:13.932Z,100.00
2022-10-08T08:56:40.937Z,100.00
2022-10-08T08:59:25.288Z,100.00
2022-10-08T09:01:56.099Z,100.00
2022-10-08T09:04:26.949Z,100.00
2022-10-08T09:06:56.327Z,100.00
2022-10-08T09:09:42.913Z,100.00
2022-10-08T09:12:20.796Z,100.00
2022-10-08T09:14:51.767Z,100.00
2022-10-08T09:17:20.229Z,100.00
2022-10-08T09:19:48.762Z,100.00
2022-10-08T09:22:20.404Z,100.00
2022-10-08T09:24:51.171Z,100.00
2022-10-08T09:27:19.213Z,100.00
2022-10-08T09:29:46.037Z,100.00
2022-10-08T09:32:17.598Z,100.00
2022-10-08T09:34:45.137Z,100.00
2022-10-08T09:37:23.294Z,100.00
2022-10-08T09:40:26.747Z,100.00
2022-10-08T09:43:12.699Z,100.00
2022-10-08T09:45:40.370Z,100.00
2022-10-08T09:48:24.780Z,100.00
2022-10-08T09:50:59.588Z,100.00
2022-10-08T09:53:29.222Z,100.00
2022-10-08T09:56:01.396Z,100.00
2022-10-08T09:58:31.281Z,100.00
2022-10-08T10:01:04.559Z,100.00
2022-10-08T10:03:31.816Z,100.00
2022-10-08T10:05:59.205Z,100.00
2022-10-08T10:08:43.236Z,100.00
2022-10-08T10:11:17.713Z,100.00
2022-10-08T10:13:49.203Z,100.00
2022-10-08T10:16:19.844Z,100.00
2022-10-08T10:18:54.756Z,100.00
2022-10-08T10:22:01.963Z,100.00
2022-10-08T10:24:36.351Z,100.00
2022-10-08T10:27:13.964Z,100.00
2022-10-08T10:29:47.643Z,100.00
2022-10-08T10:32:21.203Z,100.00
2022-10-08T10:34:58.944Z,100.00
2022-10-08T10:37:33.201Z,100.00
2022-10-08T10:40:18.162Z,100.00
2022-10-08T10:42:57.852Z,100.00
2022-10-08T10:45:26.769Z,100.00
2022-10-08T10:47:56.883Z,100.00
2022-10-08T10:50:38.108Z,100.00
2022-10-08T10:53:17.904Z,100.00
2022-10-08T10:56:13.622Z,100.00
2022-10-08T10:59:21.709Z,100.00
2022-10-08T11:01:56.943Z,100.00
2022-10-08T11:04:35.747Z,100.00
2022-10-08T11:07:14.470Z,100.00
2022-10-08T11:09:46.703Z,98.43
2022-10-08T11:12:37.830Z,97.79
2022-10-08T11:15:38.652Z,95.80
2022-10-08T11:18:43.756Z,96.24
2022-10-08T11:21:33.605Z,96.70
2022-10-08T11:24:27.588Z,96.18
2022-10-08T11:27:03.509Z,98.39
2022-10-08T11:29:39.502Z,98.22
2022-10-08T11:32:12.100Z,96.57
2022-10-08T11:34:39.334Z,96.40
2022-10-08T11:37:11.922Z,93.61
2022-10-08T11:39:48.120Z,93.84
2022-10-08T11:42:30.198Z,94.77
2022-10-08T11:45:22.766Z,91.05
2022-10-08T11:47:59.876Z,90.59
2022-10-08T11:50:32.050Z,93.59
2022-10-08T11:53:11.028Z,92.10
2022-10-08T11:55:41.094Z,92.68
2022-10-08T11:58:21.393Z,93.36
2022-10-08T12:00:48.361Z,93.52
2022-10-08T12:03:34.458Z,94.54
2022-10-08T12:06:24.729Z,94.95
2022-10-08T12:09:23.937Z,96.13
2022-10-08T12:11:52.785Z,94.75
2022-10-08T12:14:19.323Z,92.05
2022-10-08T12:16:48.991Z,91.17
2022-10-08T12:19:34.112Z,91.14
2022-10-08T12:22:02.638Z,90.77
2022-10-08T12:24:38.484Z,92.22
2022-10-08T12:27:17.310Z,92.02
2022-10-08T12:30:02.280Z,92.54
2022-10-08T12:32:39.526Z,89.60
2022-10-08T12:35:06.756Z,91.22
2022-10-08T12:37:45.867Z,87.20
2022-10-08T12:40:26.277Z,87.06
2022-10-08T12:43:16.908Z,85.70
2022-10-08T12:45:50.942Z,84.47
2022-10-08T12:48:33.841Z,84.01
2022-10-08T12:51:14.187Z,80.22
2022-10-08T12:53:47.962Z,81.00
2022-10-08T12:56:17.607Z,80.05
2022-10-08T12:58:46.254Z,80.78
2022-10-08T13:01:15.192Z,79.89
2022-10-08T13:03:41.829Z,80.37
2022-10-08T13:06:17.513Z,81.66
2022-10-08T13:08:45.037Z,82.20
2022-10-08T13:11:13.841Z,82.97
2022-10-08T13:13:41.860Z,84.60
2022-10-08T13:16:14.039Z,85.23
2022-10-08T13:18:44.275Z,82.33
2022-10-08T13:21:32.941Z,80.41
2022-10-08T13:24:20.566Z,72.88
2022-10-08T13:26:50.198Z,76.09
2022-10-08T13:29:28.633Z,76.86
2022-10-08T13:32:15.760Z,78.10
2022-10-08T13:34:45.184Z,78.35
2022-10-08T13:37:29.900Z,74.17
2022-10-08T13:39:59.017Z,75.46
2022-10-08T13:42:28.992Z,77.42
2022-10-08T13:44:57.790Z,77.03
2022-10-08T13:47:24.724Z,76.99
2022-10-08T13:49:51.429Z,77.38
2022-10-08T13:52:23.590Z,78.62
2022-10-08T13:54:54.533Z,81.06
2022-10-08T13:57:24.012Z,79.97
2022-10-08T13:59:50.768Z,80.20
2022-10-08T14:02:17.513Z,81.78
2022-10-08T14:04:44.201Z,82.42
2022-10-08T14:07:31.518Z,79.07
2022-10-08T14:10:00.109Z,78.50
2022-10-08T14:12:32.348Z,78.78
2022-10-08T14:15:00.183Z,79.70
2022-10-08T14:17:27.140Z,78.87
2022-10-08T14:19:55.555Z,79.15
2022-10-08T14:22:22.538Z,77.71
2022-10-08T14:24:49.148Z,80.74
2022-10-08T14:27:15.769Z,79.44
2022-10-08T14:29:42.407Z,77.71
2022-10-08T14:32:10.020Z,77.70
2022-10-08T14:34:37.111Z,77.70
2022-10-08T14:37:04.180Z,77.29
2022-10-08T14:39:31.583Z,74.91
2022-10-08T14:41:58.769Z,74.71
2022-10-08T14:44:25.501Z,75.05
2022-10-08T14:46:52.965Z,75.96
2022-10-08T14:49:20.637Z,76.02
2022-10-08T14:51:47.387Z,77.23
2022-10-08T14:54:14.078Z,79.06
2022-10-08T14:56:42.712Z,80.01
2022-10-08T14:59:10.529Z,79.58
2022-10-08T15:01:37.452Z,79.39
2022-10-08T15:04:04.733Z,79.62
2022-10-08T15:06:32.485Z,80.95
2022-10-08T15:08:59.353Z,86.34
2022-10-08T15:11:26.109Z,99.22
2022-10-08T15:13:53.722Z,100.00
2022-10-08T15:16:20.590Z,100.00
2022-10-08T15:18:47.474Z,100.00
2022-10-08T15:21:14.505Z,100.00
2022-10-08T15:23:41.208Z,100.00
2022-10-08T15:26:12.055Z,100.00
2022-10-08T15:28:38.985Z,100.00
2022-10-08T15:31:13.084Z,100.00
2022-10-08T15:33:41.168Z,100.00
2022-10-08T15:36:20.817Z,100.00
2022-10-08T15:38:48.691Z,100.00
2022-10-08T15:41:17.321Z,100.00
2022-10-08T15:43:44.049Z,100.00
2022-10-08T15:46:14.108Z,100.00
2022-10-08T15:48:40.803Z,100.00
2022-10-08T15:51:08.101Z,100.00
2022-10-08T15:53:38.473Z,100.00
2022-10-08T15:56:05.872Z,100.00
2022-10-08T15:58:49.949Z,100.00
2022-10-08T16:01:23.203Z,100.00
2022-10-08T16:03:52.198Z,100.00
2022-10-08T16:06:20.928Z,100.00
2022-10-08T16:08:47.544Z,100.00
2022-10-08T16:11:18.228Z,100.00
2022-10-08T16:13:46.875Z,100.00
2022-10-08T16:16:16.835Z,100.00
2022-10-08T16:18:51.002Z,100.00
2022-10-08T16:21:17.833Z,100.00
2022-10-08T16:23:44.413Z,100.00
2022-10-08T16:26:12.879Z,100.00
2022-10-08T16:28:40.718Z,100.00
2022-10-08T16:31:08.605Z,100.00
2022-10-08T16:33:35.316Z,100.00
2022-10-08T16:36:04.593Z,100.00
2022-10-08T16:38:33.002Z,100.00
2022-10-08T16:41:21.424Z,100.00
2022-10-08T16:43:49.746Z,100.00
2022-10-08T16:46:31.003Z,100.00
2022-10-08T16:49:06.563Z,100.00
2022-10-08T16:51:36.247Z,100.00
2022-10-08T16:54:05.148Z,100.00
2022-10-08T16:56:34.719Z,100.00
2022-10-08T16:59:05.508Z,100.00
2022-10-08T17:01:32.241Z,100.00
2022-10-08T17:03:58.898Z,100.00
2022-10-08T17:06:26.118Z,100.00
2022-10-08T17:08:52.816Z,100.00
2022-10-08T17:11:20.317Z,100.00
2022-10-08T17:13:49.685Z,100.00
2022-10-08T17:16:18.238Z,100.00
2022-10-08T17:18:45.063Z,100.00
2022-10-08T17:21:12.797Z,100.00
2022-10-08T17:23:39.637Z,100.00
2022-10-08T17:26:10.151Z,100.00
2022-10-08T17:28:40.003Z,100.00
2022-10-08T17:31:09.166Z,100.00
2022-10-08T17:33:36.374Z,100.00
2022-10-08T17:36:10.299Z,100.00
2022-10-08T17:38:37.993Z,100.00
2022-10-08T17:41:18.163Z,100.00
2022-10-08T17:43:45.523Z,100.00
2022-10-08T17:46:13.902Z,100.00
2022-10-08T17:48:40.665Z,100.00
2022-10-08T17:51:09.192Z,100.00
2022-10-08T17:53:36.034Z,100.00
2022-10-08T17:56:05.385Z,100.00
2022-10-08T17:58:32.243Z,100.00
2022-10-08T18:01:08.815Z,100.00
2022-10-08T18:03:37.620Z,100.00
2022-10-08T18:06:04.951Z,100.00
2022-10-08T18:08:32.268Z,100.00
2022-10-08T18:11:07.358Z,100.00
2022-10-08T18:13:34.432Z,100.00
2022-10-08T18:16:13.254Z,100.00
2022-10-08T18:18:41.074Z,100.00
2022-10-08T18:21:08.073Z,100.00
2022-10-08T18:23:36.469Z,100.00
2022-10-08T18:26:24.037Z,100.00
2022-10-08T18:28:59.159Z,100.00
2022-10-08T18:31:27.774Z,100.00
2022-10-08T18:33:56.781Z,100.00
2022-10-08T18:36:26.254Z,100.00
2022-10-08T18:38:58.491Z,100.00
2022-10-08T18:41:38.888Z,100.00
2022-10-08T18:44:06.786Z,100.00
2022-10-08T18:46:35.403Z,100.00
2022-10-08T18:49:02.519Z,100.00
2022-10-08T18:51:30.260Z,100.00
2022-10-08T18:53:59.581Z,100.00
2022-10-08T18:56:31.232Z,100.00
2022-10-08T18:58:59.237Z,100.00
2022-10-08T19:01:28.138Z,100.00
2022-10-08T19:03:57.110Z,100.00
2022-10-08T19:06:26.943Z,100.00
2022-10-08T19:08:55.189Z,100.00
2022-10-08T19:11:24.682Z,100.00
2022-10-08T19:13:55.069Z,100.00
2022-10-08T19:16:22.085Z,100.00
2022-10-08T19:18:58.127Z,100.00
2022-10-08T19:21:26.332Z,100.00
2022-10-08T19:23:54.396Z,100.00
2022-10-08T19:26:21.298Z,100.00
2022-10-08T19:28:50.933Z,100.00
2022-10-08T19:31:27.999Z,100.00
2022-10-08T19:34:07.448Z,100.00
2022-10-08T19:36:36.732Z,100.00
2022-10-08T19:39:14.982Z,100.00
2022-10-08T19:41:42.772Z,100.00
2022-10-08T19:44:09.865Z,100.00
2022-10-08T19:46:36.851Z,100.00
2022-10-08T19:49:05.314Z,100.00
2022-10-08T19:51:33.270Z,100.00
2022-10-08T19:54:00.979Z,100.00
2022-10-08T19:56:28.811Z,100.00
2022-10-08T19:58:55.731Z,100.00
2022-10-08T20:01:24.573Z,100.00
2022-10-08T20:03:55.936Z,100.00
2022-10-08T20:06:24.970Z,100.00
2022-10-08T20:08:56.393Z,100.00
2022-10-08T20:11:23.240Z,100.00
2022-10-08T20:13:50.741Z,100.00
2022-10-08T20:16:19.708Z,100.00
2022-10-08T20:18:52.374Z,100.00
2022-10-08T20:21:19.703Z,100.00
2022-10-08T20:23:46.640Z,100.00
2022-10-08T20:26:28.326Z,100.00
2022-10-08T20:29:00.396Z,100.00
2022-10-08T20:31:31.794Z,100.00
2022-10-08T20:34:00.344Z,100.00
2022-10-08T20:36:27.783Z,100.00
2022-10-08T20:38:54.646Z,100.00
2022-10-08T20:41:25.477Z,100.00
2022-10-08T20:43:56.795Z,100.00
2022-10-08T20:46:23.426Z,100.00
2022-10-08T20:48:50.142Z,100.00
2022-10-08T20:51:18.786Z,100.00
2022-10-08T20:53:49.095Z,100.00
2022-10-08T20:56:16.002Z,100.00
2022-10-08T20:58:43.004Z,100.00
2022-10-08T21:01:11.007Z,100.00
2022-10-08T21:03:38.677Z,100.00
2022-10-08T21:06:06.814Z,100.00
2022-10-08T21:08:38.723Z,100.00
2022-10-08T21:11:08.717Z,100.00
2022-10-08T21:13:37.149Z,100.00
2022-10-08T21:16:25.047Z,100.00
2022-10-08T21:18:53.420Z,100.00
2022-10-08T21:21:20.148Z,100.00
2022-10-08T21:23:49.097Z,100.00
2022-10-08T21:26:24.629Z,100.00
2022-10-08T21:28:53.420Z,100.00
2022-10-08T21:31:21.927Z,100.00
2022-10-08T21:33:51.713Z,100.00
2022-10-08T21:36:23.663Z,100.00
2022-10-08T21:38:50.526Z,100.00
2022-10-08T21:41:18.768Z,100.00
2022-10-08T21:43:50.540Z,100.00
2022-10-08T21:46:19.615Z,100.00
2022-10-08T21:48:46.971Z,100.00
2022-10-08T21:51:16.169Z,100.00
2022-10-08T21:53:55.307Z,100.00
2022-10-08T21:56:25.900Z,100.00
2022-10-08T21:58:54.565Z,100.00
2022-10-08T22:01:30.173Z,100.00
2022-10-08T22:04:10.784Z,100.00
2022-10-08T22:06:40.371Z,100.00
2022-10-08T22:09:10.851Z,100.00
2022-10-08T22:11:38.339Z,100.00
2022-10-08T22:14:05.106Z,100.00
2022-10-08T22:16:40.028Z,100.00
2022-10-08T22:19:09.684Z,100.00
2022-10-08T22:21:38.179Z,100.00
2022-10-08T22:24:05.270Z,100.00
2022-10-08T22:26:37.697Z,100.00
2022-10-08T22:29:05.839Z,100.00
2022-10-08T22:31:32.983Z,100.00
2022-10-08T22:34:00.034Z,100.00
2022-10-08T22:36:29.098Z,100.00
2022-10-08T22:38:56.490Z,100.00
2022-10-08T22:41:25.903Z,100.00
2022-10-08T22:43:53.036Z,100.00
2022-10-08T22:46:25.798Z,100.00
2022-10-08T22:48:57.131Z,100.00
2022-10-08T22:51:23.966Z,100.00
2022-10-08T22:53:51.478Z,100.00
2022-10-08T22:56:23.598Z,100.00
2022-10-08T22:58:50.979Z,100.00
2022-10-08T23:01:22.102Z,100.00
2022-10-08T23:03:49.354Z,100.00
2022-10-08T23:06:23.785Z,100.00
2022-10-08T23:09:01.924Z,100.00
2022-10-08T23:11:29.646Z,100.00
2022-10-08T23:13:57.819Z,100.00
2022-10-08T23:16:26.173Z,100.00
2022-10-08T23:19:01.842Z,100.00
2022-10-08T23:21:28.715Z,100.00
2022-10-08T23:23:56.255Z,100.00
2022-10-08T23:26:23.871Z,100.00
2022-10-08T23:28:53.405Z,100.00
2022-10-08T23:31:22.780Z,100.00
2022-10-08T23:33:51.561Z,100.00
2022-10-08T23:36:23.334Z,100.00
2022-10-08T23:38:50.503Z,100.00
2022-10-08T23:41:18.367Z,100.00
2022-10-08T23:43:47.334Z,100.00
2022-10-08T23:46:17.380Z,100.00
2022-10-08T23:48:44.204Z,100.00
2022-10-08T23:51:11.998Z,100.00
2022-10-08T23:53:39.333Z,100.00
2022-10-08T23:56:06.379Z,100.00
2022-10-08T23:58:33.079Z,100.00
